sensor_id;sensor_type;location;lat;lon;timestamp;P1;durP1;ratioP1;P2;durP2;ratioP2
71655;SDS011;59497;48.798;8.816;2023-03-13T00:00:28;9.90;;;2.00;;
71655;SDS011;59497;48.798;8.816;2023-03-13T00:02:53;7.70;;;2.47;;
71655;SDS011;59497;48.798;8.816;2023-03-13T00:05:18;9.53;;;1.90;;
71655;SDS011;59497;48.798;8.816;2023-03-13T00:07:43;9.80;;;2.03;;
71655;SDS011;59497;48.798;8.816;2023-03-13T00:10:08;4.90;;;1.73;;
71655;SDS011;59497;48.798;8.816;2023-03-13T00:12:34;9.57;;;2.10;;
71655;SDS011;59497;48.798;8.816;2023-03-13T00:14:59;11.83;;;2.67;;
71655;SDS011;59497;48.798;8.816;2023-03-13T00:17:24;11.10;;;3.07;;
71655;SDS011;59497;48.798;8.816;2023-03-13T00:19:49;9.90;;;2.63;;
71655;SDS011;59497;48.798;8.816;2023-03-13T00:22:14;17.30;;;5.57;;
71655;SDS011;59497;48.798;8.816;2023-03-13T00:24:39;15.87;;;4.67;;
71655;SDS011;59497;48.798;8.816;2023-03-13T00:27:05;17.75;;;3.75;;
71655;SDS011;59497;48.798;8.816;2023-03-13T00:29:31;15.47;;;3.90;;
71655;SDS011;59497;48.798;8.816;2023-03-13T00:31:56;13.60;;;4.37;;
71655;SDS011;59497;48.798;8.816;2023-03-13T00:34:21;23.33;;;6.80;;
71655;SDS011;59497;48.798;8.816;2023-03-13T00:36:47;16.48;;;5.10;;
71655;SDS011;59497;48.798;8.816;2023-03-13T00:39:13;14.37;;;4.60;;
71655;SDS011;59497;48.798;8.816;2023-03-13T00:41:38;12.43;;;3.10;;
71655;SDS011;59497;48.798;8.816;2023-03-13T00:44:03;8.40;;;1.43;;
71655;SDS011;59497;48.798;8.816;2023-03-13T00:46:28;5.57;;;1.10;;
71655;SDS011;59497;48.798;8.816;2023-03-13T00:48:54;7.72;;;1.30;;
71655;SDS011;59497;48.798;8.816;2023-03-13T00:51:20;6.03;;;1.10;;
71655;SDS011;59497;48.798;8.816;2023-03-13T00:53:46;9.65;;;1.58;;
71655;SDS011;59497;48.798;8.816;2023-03-13T00:56:12;6.93;;;1.00;;
71655;SDS011;59497;48.798;8.816;2023-03-13T00:58:38;5.95;;;1.25;;
71655;SDS011;59497;48.798;8.816;2023-03-13T01:03:32;6.18;;;1.08;;
71655;SDS011;59497;48.798;8.816;2023-03-13T01:05:57;4.70;;;0.97;;
71655;SDS011;59497;48.798;8.816;2023-03-13T01:08:23;4.93;;;0.90;;
71655;SDS011;59497;48.798;8.816;2023-03-13T01:10:48;3.67;;;1.10;;
71655;SDS011;59497;48.798;8.816;2023-03-13T01:13:14;4.93;;;0.73;;
71655;SDS011;59497;48.798;8.816;2023-03-13T01:15:39;5.13;;;1.60;;
71655;SDS011;59497;48.798;8.816;2023-03-13T01:18:04;4.22;;;1.27;;
71655;SDS011;59497;48.798;8.816;2023-03-13T01:20:29;5.27;;;1.27;;
71655;SDS011;59497;48.798;8.816;2023-03-13T01:22:55;6.10;;;0.93;;
71655;SDS011;59497;48.798;8.816;2023-03-13T01:25:20;5.70;;;0.87;;
71655;SDS011;59497;48.798;8.816;2023-03-13T01:27:45;7.43;;;1.60;;
71655;SDS011;59497;48.798;8.816;2023-03-13T01:30:10;7.07;;;1.80;;
71655;SDS011;59497;48.798;8.816;2023-03-13T01:32:36;3.97;;;1.10;;
71655;SDS011;59497;48.798;8.816;2023-03-13T01:35:01;5.27;;;1.03;;
71655;SDS011;59497;48.798;8.816;2023-03-13T01:37:26;7.13;;;1.07;;
71655;SDS011;59497;48.798;8.816;2023-03-13T01:39:51;4.37;;;0.80;;
71655;SDS011;59497;48.798;8.816;2023-03-13T01:42:16;5.07;;;1.33;;
71655;SDS011;59497;48.798;8.816;2023-03-13T01:44:52;4.17;;;1.00;;
71655;SDS011;59497;48.798;8.816;2023-03-13T01:47:17;5.93;;;1.10;;
71655;SDS011;59497;48.798;8.816;2023-03-13T01:49:43;5.83;;;0.90;;
71655;SDS011;59497;48.798;8.816;2023-03-13T01:52:13;3.77;;;1.03;;
71655;SDS011;59497;48.798;8.816;2023-03-13T01:57:05;3.80;;;0.60;;
71655;SDS011;59497;48.798;8.816;2023-03-13T02:02:26;7.38;;;0.90;;
71655;SDS011;59497;48.798;8.816;2023-03-13T02:04:53;5.80;;;0.80;;
71655;SDS011;59497;48.798;8.816;2023-03-13T02:07:25;3.80;;;0.57;;
71655;SDS011;59497;48.798;8.816;2023-03-13T02:09:52;4.40;;;0.70;;
71655;SDS011;59497;48.798;8.816;2023-03-13T02:12:21;3.97;;;0.50;;
71655;SDS011;59497;48.798;8.816;2023-03-13T02:14:47;3.72;;;0.82;;
71655;SDS011;59497;48.798;8.816;2023-03-13T02:17:14;4.05;;;0.70;;
71655;SDS011;59497;48.798;8.816;2023-03-13T02:19:41;4.60;;;0.70;;
71655;SDS011;59497;48.798;8.816;2023-03-13T02:22:15;3.13;;;0.60;;
71655;SDS011;59497;48.798;8.816;2023-03-13T02:27:09;2.67;;;0.60;;
71655;SDS011;59497;48.798;8.816;2023-03-13T02:29:34;4.93;;;0.40;;
71655;SDS011;59497;48.798;8.816;2023-03-13T02:31:59;3.90;;;0.60;;
71655;SDS011;59497;48.798;8.816;2023-03-13T02:34:26;3.33;;;0.40;;
71655;SDS011;59497;48.798;8.816;2023-03-13T02:36:52;3.53;;;0.50;;
71655;SDS011;59497;48.798;8.816;2023-03-13T02:39:18;2.97;;;0.50;;
71655;SDS011;59497;48.798;8.816;2023-03-13T02:41:44;3.28;;;0.52;;
71655;SDS011;59497;48.798;8.816;2023-03-13T02:44:10;2.00;;;0.40;;
71655;SDS011;59497;48.798;8.816;2023-03-13T02:46:49;3.97;;;0.50;;
71655;SDS011;59497;48.798;8.816;2023-03-13T02:49:29;4.00;;;0.60;;
71655;SDS011;59497;48.798;8.816;2023-03-13T02:54:39;2.05;;;0.57;;
71655;SDS011;59497;48.798;8.816;2023-03-13T02:57:05;3.97;;;0.80;;
71655;SDS011;59497;48.798;8.816;2023-03-13T02:59:30;3.70;;;0.90;;
71655;SDS011;59497;48.798;8.816;2023-03-13T03:01:56;3.95;;;0.60;;
71655;SDS011;59497;48.798;8.816;2023-03-13T03:04:22;1.83;;;0.50;;
71655;SDS011;59497;48.798;8.816;2023-03-13T03:06:47;1.98;;;0.52;;
71655;SDS011;59497;48.798;8.816;2023-03-13T03:09:13;3.17;;;1.10;;
71655;SDS011;59497;48.798;8.816;2023-03-13T03:11:38;1.23;;;0.70;;
71655;SDS011;59497;48.798;8.816;2023-03-13T03:14:03;1.63;;;0.83;;
71655;SDS011;59497;48.798;8.816;2023-03-13T03:16:29;1.20;;;0.53;;
71655;SDS011;59497;48.798;8.816;2023-03-13T03:18:54;2.77;;;0.47;;
71655;SDS011;59497;48.798;8.816;2023-03-13T03:21:19;2.40;;;0.40;;
71655;SDS011;59497;48.798;8.816;2023-03-13T03:23:45;2.38;;;0.60;;
71655;SDS011;59497;48.798;8.816;2023-03-13T03:26:10;2.40;;;0.63;;
71655;SDS011;59497;48.798;8.816;2023-03-13T03:28:35;3.20;;;0.70;;
71655;SDS011;59497;48.798;8.816;2023-03-13T03:31:04;1.93;;;0.47;;
71655;SDS011;59497;48.798;8.816;2023-03-13T03:33:29;3.47;;;0.47;;
71655;SDS011;59497;48.798;8.816;2023-03-13T03:35:58;0.97;;;0.50;;
71655;SDS011;59497;48.798;8.816;2023-03-13T03:38:23;1.35;;;0.30;;
71655;SDS011;59497;48.798;8.816;2023-03-13T03:40:48;0.53;;;0.27;;
71655;SDS011;59497;48.798;8.816;2023-03-13T03:43:13;1.07;;;0.23;;
71655;SDS011;59497;48.798;8.816;2023-03-13T03:45:38;1.30;;;0.30;;
71655;SDS011;59497;48.798;8.816;2023-03-13T03:48:04;2.60;;;0.50;;
71655;SDS011;59497;48.798;8.816;2023-03-13T03:50:29;1.23;;;0.30;;
71655;SDS011;59497;48.798;8.816;2023-03-13T03:52:54;2.87;;;0.50;;
71655;SDS011;59497;48.798;8.816;2023-03-13T03:55:19;1.47;;;0.60;;
71655;SDS011;59497;48.798;8.816;2023-03-13T03:57:44;1.80;;;0.60;;
71655;SDS011;59497;48.798;8.816;2023-03-13T04:00:10;1.33;;;0.37;;
71655;SDS011;59497;48.798;8.816;2023-03-13T04:02:38;1.38;;;0.50;;
71655;SDS011;59497;48.798;8.816;2023-03-13T04:05:03;1.60;;;0.67;;
71655;SDS011;59497;48.798;8.816;2023-03-13T04:07:28;2.80;;;0.60;;
71655;SDS011;59497;48.798;8.816;2023-03-13T04:09:54;0.90;;;0.60;;
71655;SDS011;59497;48.798;8.816;2023-03-13T04:12:19;2.20;;;0.70;;
71655;SDS011;59497;48.798;8.816;2023-03-13T04:14:44;2.40;;;0.60;;
71655;SDS011;59497;48.798;8.816;2023-03-13T04:17:09;1.53;;;0.40;;
71655;SDS011;59497;48.798;8.816;2023-03-13T04:19:34;1.00;;;0.60;;
71655;SDS011;59497;48.798;8.816;2023-03-13T04:21:59;0.90;;;0.63;;
71655;SDS011;59497;48.798;8.816;2023-03-13T04:24:25;3.47;;;0.60;;
71655;SDS011;59497;48.798;8.816;2023-03-13T04:26:50;2.83;;;0.67;;
71655;SDS011;59497;48.798;8.816;2023-03-13T04:29:15;4.03;;;0.70;;
71655;SDS011;59497;48.798;8.816;2023-03-13T04:31:40;2.47;;;0.60;;
71655;SDS011;59497;48.798;8.816;2023-03-13T04:34:05;2.10;;;0.60;;
71655;SDS011;59497;48.798;8.816;2023-03-13T04:36:30;1.17;;;0.67;;
71655;SDS011;59497;48.798;8.816;2023-03-13T04:38:55;0.67;;;0.53;;
71655;SDS011;59497;48.798;8.816;2023-03-13T04:41:21;2.85;;;0.65;;
71655;SDS011;59497;48.798;8.816;2023-03-13T04:43:46;1.50;;;0.50;;
71655;SDS011;59497;48.798;8.816;2023-03-13T04:46:11;1.83;;;0.40;;
71655;SDS011;59497;48.798;8.816;2023-03-13T04:48:36;0.90;;;0.40;;
71655;SDS011;59497;48.798;8.816;2023-03-13T04:51:01;0.93;;;0.50;;
71655;SDS011;59497;48.798;8.816;2023-03-13T04:53:26;0.93;;;0.60;;
71655;SDS011;59497;48.798;8.816;2023-03-13T04:55:52;0.70;;;0.60;;
71655;SDS011;59497;48.798;8.816;2023-03-13T04:58:17;1.43;;;0.43;;
71655;SDS011;59497;48.798;8.816;2023-03-13T05:00:42;4.27;;;1.17;;
71655;SDS011;59497;48.798;8.816;2023-03-13T05:03:07;0.80;;;0.50;;
71655;SDS011;59497;48.798;8.816;2023-03-13T05:05:33;1.57;;;0.50;;
71655;SDS011;59497;48.798;8.816;2023-03-13T05:07:59;0.88;;;0.65;;
71655;SDS011;59497;48.798;8.816;2023-03-13T05:10:24;0.73;;;0.40;;
71655;SDS011;59497;48.798;8.816;2023-03-13T05:12:49;0.90;;;0.40;;
71655;SDS011;59497;48.798;8.816;2023-03-13T05:15:14;1.00;;;0.60;;
71655;SDS011;59497;48.798;8.816;2023-03-13T05:17:39;1.10;;;0.80;;
71655;SDS011;59497;48.798;8.816;2023-03-13T05:20:05;1.47;;;1.03;;
71655;SDS011;59497;48.798;8.816;2023-03-13T05:22:32;1.10;;;0.30;;
71655;SDS011;59497;48.798;8.816;2023-03-13T05:24:57;0.70;;;0.40;;
71655;SDS011;59497;48.798;8.816;2023-03-13T05:27:22;1.00;;;0.35;;
71655;SDS011;59497;48.798;8.816;2023-03-13T05:29:47;0.40;;;0.40;;
71655;SDS011;59497;48.798;8.816;2023-03-13T05:32:12;1.20;;;0.50;;
71655;SDS011;59497;48.798;8.816;2023-03-13T05:34:37;1.67;;;0.50;;
71655;SDS011;59497;48.798;8.816;2023-03-13T05:37:03;1.10;;;0.35;;
71655;SDS011;59497;48.798;8.816;2023-03-13T05:39:28;1.00;;;0.20;;
71655;SDS011;59497;48.798;8.816;2023-03-13T05:41:53;0.53;;;0.50;;
71655;SDS011;59497;48.798;8.816;2023-03-13T05:44:18;0.70;;;0.40;;
71655;SDS011;59497;48.798;8.816;2023-03-13T05:46:43;1.33;;;0.40;;
71655;SDS011;59497;48.798;8.816;2023-03-13T05:49:08;0.50;;;0.37;;
71655;SDS011;59497;48.798;8.816;2023-03-13T05:51:34;1.00;;;0.53;;
71655;SDS011;59497;48.798;8.816;2023-03-13T05:53:59;2.10;;;0.20;;
71655;SDS011;59497;48.798;8.816;2023-03-13T05:56:24;0.50;;;0.40;;
71655;SDS011;59497;48.798;8.816;2023-03-13T05:58:49;0.47;;;0.47;;
71655;SDS011;59497;48.798;8.816;2023-03-13T06:01:14;0.87;;;0.40;;
71655;SDS011;59497;48.798;8.816;2023-03-13T06:03:39;0.70;;;0.40;;
71655;SDS011;59497;48.798;8.816;2023-03-13T06:06:05;2.50;;;0.40;;
71655;SDS011;59497;48.798;8.816;2023-03-13T06:08:30;0.50;;;0.30;;
71655;SDS011;59497;48.798;8.816;2023-03-13T06:11:00;1.58;;;0.68;;
71655;SDS011;59497;48.798;8.816;2023-03-13T06:13:25;2.30;;;1.40;;
71655;SDS011;59497;48.798;8.816;2023-03-13T06:15:56;6.37;;;2.83;;
71655;SDS011;59497;48.798;8.816;2023-03-13T06:18:22;3.55;;;2.65;;
71655;SDS011;59497;48.798;8.816;2023-03-13T06:20:48;0.97;;;0.57;;
71655;SDS011;59497;48.798;8.816;2023-03-13T06:23:13;1.20;;;0.77;;
71655;SDS011;59497;48.798;8.816;2023-03-13T06:25:38;1.60;;;0.50;;
71655;SDS011;59497;48.798;8.816;2023-03-13T06:28:03;1.30;;;0.50;;
71655;SDS011;59497;48.798;8.816;2023-03-13T06:30:28;0.60;;;0.37;;
71655;SDS011;59497;48.798;8.816;2023-03-13T06:32:54;0.57;;;0.57;;
71655;SDS011;59497;48.798;8.816;2023-03-13T06:35:19;0.93;;;0.50;;
71655;SDS011;59497;48.798;8.816;2023-03-13T06:37:44;0.77;;;0.30;;
71655;SDS011;59497;48.798;8.816;2023-03-13T06:40:09;0.77;;;0.37;;
71655;SDS011;59497;48.798;8.816;2023-03-13T06:42:35;1.30;;;0.60;;
71655;SDS011;59497;48.798;8.816;2023-03-13T06:45:00;0.90;;;0.40;;
71655;SDS011;59497;48.798;8.816;2023-03-13T06:47:27;0.68;;;0.30;;
71655;SDS011;59497;48.798;8.816;2023-03-13T06:49:54;0.95;;;0.32;;
71655;SDS011;59497;48.798;8.816;2023-03-13T06:52:19;0.40;;;0.27;;
71655;SDS011;59497;48.798;8.816;2023-03-13T06:54:44;0.83;;;0.30;;
71655;SDS011;59497;48.798;8.816;2023-03-13T06:57:09;0.80;;;0.30;;
71655;SDS011;59497;48.798;8.816;2023-03-13T06:59:34;0.80;;;0.30;;
71655;SDS011;59497;48.798;8.816;2023-03-13T07:02:00;0.87;;;0.27;;
71655;SDS011;59497;48.798;8.816;2023-03-13T07:04:25;0.40;;;0.40;;
71655;SDS011;59497;48.798;8.816;2023-03-13T07:06:50;1.50;;;0.37;;
71655;SDS011;59497;48.798;8.816;2023-03-13T07:09:16;0.50;;;0.20;;
71655;SDS011;59497;48.798;8.816;2023-03-13T07:11:43;0.50;;;0.45;;
71655;SDS011;59497;48.798;8.816;2023-03-13T07:14:09;2.00;;;0.80;;
71655;SDS011;59497;48.798;8.816;2023-03-13T07:16:34;3.07;;;1.70;;
71655;SDS011;59497;48.798;8.816;2023-03-13T07:18:59;3.63;;;1.47;;
71655;SDS011;59497;48.798;8.816;2023-03-13T07:21:24;2.23;;;1.20;;
71655;SDS011;59497;48.798;8.816;2023-03-13T07:23:49;2.40;;;1.20;;
71655;SDS011;59497;48.798;8.816;2023-03-13T07:26:15;1.13;;;0.97;;
71655;SDS011;59497;48.798;8.816;2023-03-13T07:28:40;1.53;;;1.13;;
71655;SDS011;59497;48.798;8.816;2023-03-13T07:31:15;0.90;;;0.53;;
71655;SDS011;59497;48.798;8.816;2023-03-13T07:33:41;0.70;;;0.60;;
71655;SDS011;59497;48.798;8.816;2023-03-13T07:36:06;0.40;;;0.30;;
71655;SDS011;59497;48.798;8.816;2023-03-13T07:38:32;0.90;;;0.80;;
71655;SDS011;59497;48.798;8.816;2023-03-13T07:40:57;1.00;;;0.60;;
71655;SDS011;59497;48.798;8.816;2023-03-13T07:43:22;0.97;;;0.60;;
71655;SDS011;59497;48.798;8.816;2023-03-13T07:45:51;0.50;;;0.40;;
71655;SDS011;59497;48.798;8.816;2023-03-13T07:48:17;0.38;;;0.38;;
71655;SDS011;59497;48.798;8.816;2023-03-13T07:50:42;0.60;;;0.30;;
71655;SDS011;59497;48.798;8.816;2023-03-13T07:53:07;1.53;;;0.73;;
71655;SDS011;59497;48.798;8.816;2023-03-13T07:55:33;1.60;;;0.60;;
71655;SDS011;59497;48.798;8.816;2023-03-13T07:57:58;1.03;;;0.70;;
71655;SDS011;59497;48.798;8.816;2023-03-13T08:00:23;1.20;;;1.00;;
71655;SDS011;59497;48.798;8.816;2023-03-13T08:02:48;0.70;;;0.60;;
71655;SDS011;59497;48.798;8.816;2023-03-13T08:05:13;0.50;;;0.40;;
71655;SDS011;59497;48.798;8.816;2023-03-13T08:07:39;0.60;;;0.50;;
71655;SDS011;59497;48.798;8.816;2023-03-13T08:10:04;8.40;;;3.60;;
71655;SDS011;59497;48.798;8.816;2023-03-13T08:12:29;2.50;;;1.07;;
71655;SDS011;59497;48.798;8.816;2023-03-13T08:14:55;0.80;;;0.70;;
71655;SDS011;59497;48.798;8.816;2023-03-13T08:17:20;2.22;;;0.90;;
71655;SDS011;59497;48.798;8.816;2023-03-13T08:19:46;2.93;;;0.87;;
71655;SDS011;59497;48.798;8.816;2023-03-13T08:22:11;1.88;;;1.38;;
71655;SDS011;59497;48.798;8.816;2023-03-13T08:24:36;1.37;;;0.70;;
71655;SDS011;59497;48.798;8.816;2023-03-13T08:27:01;0.88;;;0.73;;
71655;SDS011;59497;48.798;8.816;2023-03-13T08:29:26;0.90;;;0.80;;
71655;SDS011;59497;48.798;8.816;2023-03-13T08:31:51;1.10;;;0.63;;
71655;SDS011;59497;48.798;8.816;2023-03-13T08:34:17;1.73;;;1.10;;
71655;SDS011;59497;48.798;8.816;2023-03-13T08:36:42;1.60;;;1.10;;
71655;SDS011;59497;48.798;8.816;2023-03-13T08:39:11;2.63;;;0.80;;
71655;SDS011;59497;48.798;8.816;2023-03-13T08:41:37;1.30;;;0.77;;
71655;SDS011;59497;48.798;8.816;2023-03-13T08:44:04;2.45;;;1.10;;
71655;SDS011;59497;48.798;8.816;2023-03-13T08:46:30;1.13;;;0.90;;
71655;SDS011;59497;48.798;8.816;2023-03-13T08:48:56;1.00;;;0.90;;
71655;SDS011;59497;48.798;8.816;2023-03-13T08:51:22;0.93;;;0.70;;
71655;SDS011;59497;48.798;8.816;2023-03-13T08:53:48;0.90;;;0.90;;
71655;SDS011;59497;48.798;8.816;2023-03-13T08:56:14;1.50;;;1.20;;
71655;SDS011;59497;48.798;8.816;2023-03-13T08:58:40;1.45;;;1.20;;
71655;SDS011;59497;48.798;8.816;2023-03-13T09:01:06;2.27;;;1.30;;
71655;SDS011;59497;48.798;8.816;2023-03-13T09:03:31;3.67;;;1.27;;
71655;SDS011;59497;48.798;8.816;2023-03-13T09:05:57;1.70;;;0.93;;
71655;SDS011;59497;48.798;8.816;2023-03-13T09:08:23;1.50;;;0.85;;
71655;SDS011;59497;48.798;8.816;2023-03-13T09:10:53;1.90;;;1.07;;
71655;SDS011;59497;48.798;8.816;2023-03-13T09:13:19;1.65;;;1.08;;
71655;SDS011;59497;48.798;8.816;2023-03-13T09:15:44;1.93;;;1.10;;
71655;SDS011;59497;48.798;8.816;2023-03-13T09:18:09;2.13;;;0.87;;
71655;SDS011;59497;48.798;8.816;2023-03-13T09:20:35;1.50;;;0.95;;
71655;SDS011;59497;48.798;8.816;2023-03-13T09:23:00;1.70;;;1.60;;
71655;SDS011;59497;48.798;8.816;2023-03-13T09:25:25;1.63;;;0.87;;
71655;SDS011;59497;48.798;8.816;2023-03-13T09:27:50;3.77;;;1.20;;
71655;SDS011;59497;48.798;8.816;2023-03-13T09:30:16;1.20;;;1.10;;
71655;SDS011;59497;48.798;8.816;2023-03-13T09:32:41;1.60;;;1.37;;
71655;SDS011;59497;48.798;8.816;2023-03-13T09:35:06;1.20;;;1.10;;
71655;SDS011;59497;48.798;8.816;2023-03-13T09:37:31;1.70;;;1.17;;
71655;SDS011;59497;48.798;8.816;2023-03-13T09:39:56;1.57;;;1.17;;
71655;SDS011;59497;48.798;8.816;2023-03-13T09:45:12;3.50;;;1.40;;
71655;SDS011;59497;48.798;8.816;2023-03-13T09:50:16;1.17;;;1.00;;
71655;SDS011;59497;48.798;8.816;2023-03-13T09:52:43;0.93;;;0.82;;
71655;SDS011;59497;48.798;8.816;2023-03-13T09:57:37;2.13;;;1.23;;
71655;SDS011;59497;48.798;8.816;2023-03-13T10:00:06;2.03;;;0.90;;
71655;SDS011;59497;48.798;8.816;2023-03-13T10:02:36;1.75;;;1.15;;
71655;SDS011;59497;48.798;8.816;2023-03-13T10:05:09;1.93;;;1.20;;
71655;SDS011;59497;48.798;8.816;2023-03-13T10:07:36;1.50;;;1.30;;
71655;SDS011;59497;48.798;8.816;2023-03-13T10:10:02;1.73;;;1.03;;
71655;SDS011;59497;48.798;8.816;2023-03-13T10:12:28;3.08;;;1.30;;
71655;SDS011;59497;48.798;8.816;2023-03-13T10:19:55;1.00;;;0.90;;
71655;SDS011;59497;48.798;8.816;2023-03-13T10:22:21;2.97;;;1.30;;
71655;SDS011;59497;48.798;8.816;2023-03-13T10:24:58;2.25;;;1.13;;
71655;SDS011;59497;48.798;8.816;2023-03-13T10:27:24;2.17;;;1.33;;
71655;SDS011;59497;48.798;8.816;2023-03-13T10:29:49;2.17;;;1.50;;
71655;SDS011;59497;48.798;8.816;2023-03-13T10:32:15;1.10;;;0.80;;
71655;SDS011;59497;48.798;8.816;2023-03-13T10:34:57;1.70;;;1.20;;
71655;SDS011;59497;48.798;8.816;2023-03-13T10:37:25;1.73;;;0.98;;
71655;SDS011;59497;48.798;8.816;2023-03-13T10:39:51;2.60;;;1.40;;
71655;SDS011;59497;48.798;8.816;2023-03-13T10:42:18;2.57;;;1.47;;
71655;SDS011;59497;48.798;8.816;2023-03-13T10:44:44;3.50;;;2.40;;
71655;SDS011;59497;48.798;8.816;2023-03-13T10:47:11;4.77;;;2.57;;
71655;SDS011;59497;48.798;8.816;2023-03-13T10:49:36;7.35;;;3.03;;
71655;SDS011;59497;48.798;8.816;2023-03-13T10:52:11;3.75;;;1.60;;
71655;SDS011;59497;48.798;8.816;2023-03-13T10:54:51;2.22;;;1.33;;
71655;SDS011;59497;48.798;8.816;2023-03-13T10:59:49;2.20;;;1.50;;
71655;SDS011;59497;48.798;8.816;2023-03-13T11:04:55;2.97;;;1.30;;
71655;SDS011;59497;48.798;8.816;2023-03-13T11:07:54;1.63;;;1.20;;
71655;SDS011;59497;48.798;8.816;2023-03-13T11:12:38;2.10;;;1.20;;
71655;SDS011;59497;48.798;8.816;2023-03-13T11:15:12;1.98;;;1.23;;
71655;SDS011;59497;48.798;8.816;2023-03-13T11:17:39;1.83;;;1.20;;
71655;SDS011;59497;48.798;8.816;2023-03-13T11:31:23;1.40;;;0.88;;
71655;SDS011;59497;48.798;8.816;2023-03-13T11:36:28;1.98;;;1.10;;
71655;SDS011;59497;48.798;8.816;2023-03-13T11:41:58;3.33;;;0.90;;
71655;SDS011;59497;48.798;8.816;2023-03-13T11:49:20;2.65;;;0.95;;
71655;SDS011;59497;48.798;8.816;2023-03-13T11:51:57;1.40;;;1.23;;
71655;SDS011;59497;48.798;8.816;2023-03-13T11:54:34;2.75;;;1.55;;
71655;SDS011;59497;48.798;8.816;2023-03-13T11:57:09;3.53;;;1.20;;
71655;SDS011;59497;48.798;8.816;2023-03-13T12:02:08;2.03;;;0.95;;
71655;SDS011;59497;48.798;8.816;2023-03-13T12:04:42;1.33;;;1.15;;
71655;SDS011;59497;48.798;8.816;2023-03-13T12:07:17;2.22;;;1.30;;
71655;SDS011;59497;48.798;8.816;2023-03-13T12:09:45;3.87;;;1.07;;
71655;SDS011;59497;48.798;8.816;2023-03-13T12:12:26;1.55;;;1.00;;
71655;SDS011;59497;48.798;8.816;2023-03-13T12:15:37;2.15;;;1.40;;
71655;SDS011;59497;48.798;8.816;2023-03-13T12:17:45;1.48;;;1.35;;
71655;SDS011;59497;48.798;8.816;2023-03-13T12:22:41;1.87;;;1.20;;
71655;SDS011;59497;48.798;8.816;2023-03-13T12:25:14;2.13;;;1.60;;
71655;SDS011;59497;48.798;8.816;2023-03-13T12:27:42;2.25;;;1.65;;
71655;SDS011;59497;48.798;8.816;2023-03-13T12:32:58;0.88;;;0.75;;
71655;SDS011;59497;48.798;8.816;2023-03-13T12:35:33;1.67;;;1.30;;
71655;SDS011;59497;48.798;8.816;2023-03-13T12:38:02;2.85;;;1.48;;
71655;SDS011;59497;48.798;8.816;2023-03-13T12:43:01;2.38;;;1.00;;
71655;SDS011;59497;48.798;8.816;2023-03-13T12:45:29;2.35;;;1.20;;
71655;SDS011;59497;48.798;8.816;2023-03-13T12:48:18;2.07;;;1.47;;
71655;SDS011;59497;48.798;8.816;2023-03-13T13:01:14;2.63;;;0.90;;
71655;SDS011;59497;48.798;8.816;2023-03-13T13:03:51;2.58;;;1.52;;
71655;SDS011;59497;48.798;8.816;2023-03-13T13:06:17;1.70;;;1.20;;
71655;SDS011;59497;48.798;8.816;2023-03-13T13:08:45;1.40;;;1.30;;
71655;SDS011;59497;48.798;8.816;2023-03-13T13:13:55;2.65;;;1.60;;
71655;SDS011;59497;48.798;8.816;2023-03-13T13:16:20;3.60;;;1.20;;
71655;SDS011;59497;48.798;8.816;2023-03-13T13:18:47;1.52;;;1.38;;
71655;SDS011;59497;48.798;8.816;2023-03-13T13:23:41;4.60;;;1.20;;
71655;SDS011;59497;48.798;8.816;2023-03-13T13:28:53;0.90;;;0.75;;
71655;SDS011;59497;48.798;8.816;2023-03-13T13:34:02;2.33;;;0.93;;
71655;SDS011;59497;48.798;8.816;2023-03-13T13:36:28;1.53;;;0.97;;
71655;SDS011;59497;48.798;8.816;2023-03-13T13:38:53;2.05;;;1.02;;
71655;SDS011;59497;48.798;8.816;2023-03-13T13:43:45;1.97;;;0.90;;
71655;SDS011;59497;48.798;8.816;2023-03-13T13:46:24;1.33;;;1.05;;
71655;SDS011;59497;48.798;8.816;2023-03-13T13:51:34;1.92;;;0.90;;
71655;SDS011;59497;48.798;8.816;2023-03-13T13:56:34;1.40;;;1.30;;
71655;SDS011;59497;48.798;8.816;2023-03-13T14:01:44;1.92;;;0.82;;
71655;SDS011;59497;48.798;8.816;2023-03-13T14:04:19;1.23;;;1.00;;
71655;SDS011;59497;48.798;8.816;2023-03-13T14:06:47;1.25;;;1.00;;
71655;SDS011;59497;48.798;8.816;2023-03-13T14:09:30;1.00;;;0.70;;
71655;SDS011;59497;48.798;8.816;2023-03-13T14:11:57;1.48;;;1.00;;
71655;SDS011;59497;48.798;8.816;2023-03-13T14:14:22;1.40;;;1.20;;
71655;SDS011;59497;48.798;8.816;2023-03-13T14:16:48;0.75;;;0.75;;
71655;SDS011;59497;48.798;8.816;2023-03-13T14:19:27;1.00;;;0.70;;
71655;SDS011;59497;48.798;8.816;2023-03-13T14:21:58;1.55;;;1.45;;
71655;SDS011;59497;48.798;8.816;2023-03-13T14:24:24;1.42;;;1.33;;
71655;SDS011;59497;48.798;8.816;2023-03-13T14:26:49;1.53;;;0.87;;
71655;SDS011;59497;48.798;8.816;2023-03-13T14:29:16;2.17;;;0.90;;
71655;SDS011;59497;48.798;8.816;2023-03-13T14:31:46;1.38;;;0.65;;
71655;SDS011;59497;48.798;8.816;2023-03-13T14:34:14;1.27;;;1.03;;
71655;SDS011;59497;48.798;8.816;2023-03-13T14:36:49;1.33;;;1.10;;
71655;SDS011;59497;48.798;8.816;2023-03-13T14:42:02;1.00;;;0.90;;
71655;SDS011;59497;48.798;8.816;2023-03-13T14:44:29;0.90;;;0.73;;
71655;SDS011;59497;48.798;8.816;2023-03-13T14:46:56;2.33;;;0.85;;
71655;SDS011;59497;48.798;8.816;2023-03-13T14:49:23;1.63;;;0.97;;
71655;SDS011;59497;48.798;8.816;2023-03-13T14:52:03;1.33;;;1.00;;
71655;SDS011;59497;48.798;8.816;2023-03-13T14:54:36;1.13;;;0.75;;
71655;SDS011;59497;48.798;8.816;2023-03-13T14:57:02;1.05;;;0.68;;
71655;SDS011;59497;48.798;8.816;2023-03-13T14:59:28;1.30;;;1.00;;
71655;SDS011;59497;48.798;8.816;2023-03-13T15:01:57;2.43;;;1.40;;
71655;SDS011;59497;48.798;8.816;2023-03-13T15:07:06;2.00;;;0.70;;
71655;SDS011;59497;48.798;8.816;2023-03-13T15:09:32;1.67;;;0.85;;
71655;SDS011;59497;48.798;8.816;2023-03-13T15:11:58;2.57;;;1.90;;
71655;SDS011;59497;48.798;8.816;2023-03-13T15:17:01;1.73;;;1.10;;
71655;SDS011;59497;48.798;8.816;2023-03-13T15:19:28;2.38;;;1.10;;
71655;SDS011;59497;48.798;8.816;2023-03-13T15:21:53;1.20;;;1.10;;
71655;SDS011;59497;48.798;8.816;2023-03-13T15:24:18;0.70;;;0.60;;
71655;SDS011;59497;48.798;8.816;2023-03-13T15:26:44;1.57;;;1.17;;
71655;SDS011;59497;48.798;8.816;2023-03-13T15:29:11;1.23;;;1.17;;
71655;SDS011;59497;48.798;8.816;2023-03-13T15:31:37;1.30;;;1.20;;
71655;SDS011;59497;48.798;8.816;2023-03-13T15:34:04;2.40;;;1.58;;
71655;SDS011;59497;48.798;8.816;2023-03-13T15:36:30;1.75;;;1.52;;
71655;SDS011;59497;48.798;8.816;2023-03-13T15:38:55;1.40;;;1.27;;
71655;SDS011;59497;48.798;8.816;2023-03-13T15:41:21;1.40;;;1.00;;
71655;SDS011;59497;48.798;8.816;2023-03-13T15:43:46;1.03;;;0.97;;
71655;SDS011;59497;48.798;8.816;2023-03-13T15:46:16;2.45;;;1.08;;
71655;SDS011;59497;48.798;8.816;2023-03-13T15:48:41;1.60;;;1.50;;
71655;SDS011;59497;48.798;8.816;2023-03-13T15:51:10;1.40;;;1.30;;
71655;SDS011;59497;48.798;8.816;2023-03-13T15:53:35;1.42;;;1.33;;
71655;SDS011;59497;48.798;8.816;2023-03-13T15:56:01;1.00;;;0.90;;
71655;SDS011;59497;48.798;8.816;2023-03-13T15:58:28;1.58;;;0.80;;
71655;SDS011;59497;48.798;8.816;2023-03-13T16:00:54;1.30;;;1.17;;
71655;SDS011;59497;48.798;8.816;2023-03-13T16:03:20;2.37;;;0.83;;
71655;SDS011;59497;48.798;8.816;2023-03-13T16:05:46;1.15;;;0.90;;
71655;SDS011;59497;48.798;8.816;2023-03-13T16:08:16;1.63;;;1.07;;
71655;SDS011;59497;48.798;8.816;2023-03-13T16:10:42;1.63;;;1.00;;
71655;SDS011;59497;48.798;8.816;2023-03-13T16:13:07;1.38;;;1.00;;
71655;SDS011;59497;48.798;8.816;2023-03-13T16:15:32;1.30;;;1.00;;
71655;SDS011;59497;48.798;8.816;2023-03-13T16:17:58;1.20;;;1.10;;
71655;SDS011;59497;48.798;8.816;2023-03-13T16:20:23;23.30;;;4.13;;
71655;SDS011;59497;48.798;8.816;2023-03-13T16:22:50;65.32;;;7.68;;
71655;SDS011;59497;48.798;8.816;2023-03-13T16:25:15;23.37;;;3.67;;
71655;SDS011;59497;48.798;8.816;2023-03-13T16:27:40;58.60;;;6.27;;
71655;SDS011;59497;48.798;8.816;2023-03-13T16:30:16;142.43;;;17.50;;